Time;durP1;ratioP1;P1;durP2;ratioP2;P2;SDS_P1;SDS_P2;PMS_P1;PMS_P2;Temp;Humidity;BMP_temperature;BMP_pressure;BME280_temperature;BME280_humidity;BME280_pressure;Samples;Min_cycle;Max_cycle;Signal;HPM_P1;HPM_P2
2021/09/17 00:01:53;;;;;;;34.60;24.45;;;;;;;;;;5115084;28;20221;-63
2021/09/17 00:04:38;;;;;;;40.63;26.58;;;;;;;;;;5114677;28;20468;-62
2021/09/17 00:07:24;;;;;;;34.08;24.05;;;;;;;;;;5094467;28;20131;-63
2021/09/17 00:10:09;;;;;;;31.33;22.45;;;;;;;;;;5113263;28;20051;-63
2021/09/17 00:12:54;;;;;;;42.60;26.60;;;;;;;;;;5113717;28;20513;-62
2021/09/17 00:15:40;;;;;;;34.70;24.42;;;;;;;;;;5114228;28;20469;-62
2021/09/17 00:18:25;;;;;;;42.55;26.80;;;;;;;;;;5113381;28;20052;-62
2021/09/17 00:21:11;;;;;;;39.70;25.33;;;;;;;;;;5094284;28;20060;-63
2021/09/17 00:23:56;;;;;;;39.33;24.67;;;;;;;;;;5094960;28;20044;-63
2021/09/17 00:26:41;;;;;;;38.72;25.35;;;;;;;;;;5105547;28;20051;-62
2021/09/17 00:29:27;;;;;;;50.13;25.92;;;;;;;;;;5094106;28;20055;-62
2021/09/17 00:32:12;;;;;;;58.25;29.70;;;;;;;;;;5093886;28;20051;-63
2021/09/17 00:34:57;;;;;;;42.53;26.42;;;;;;;;;;5093786;28;20055;-63
2021/09/17 00:37:43;;;;;;;41.30;27.23;;;;;;;;;;5106928;28;20052;-62
2021/09/17 00:40:28;;;;;;;35.20;25.02;;;;;;;;;;5114208;28;20048;-62
2021/09/17 00:43:14;;;;;;;50.55;26.90;;;;;;;;;;5114258;28;20043;-63
2021/09/17 00:45:59;;;;;;;61.72;26.08;;;;;;;;;;5114206;28;20510;-62
2021/09/17 00:48:44;;;;;;;52.47;25.05;;;;;;;;;;5100247;28;20052;-62
2021/09/17 00:51:30;;;;;;;30.90;21.20;;;;;;;;;;5110743;28;20056;-63
2021/09/17 00:54:15;;;;;;;39.85;23.75;;;;;;;;;;5113793;28;20055;-63
2021/09/17 00:57:00;;;;;;;42.10;24.52;;;;;;;;;;5113597;28;20086;-62
2021/09/17 00:59:45;;;;;;;31.15;20.13;;;;;;;;;;5113342;28;20047;-62
2021/09/17 01:02:31;;;;;;;35.70;23.38;;;;;;;;;;5113771;28;20440;-62
2021/09/17 01:05:16;;;;;;;46.03;26.33;;;;;;;;;;5113330;28;20048;-62
2021/09/17 01:08:02;;;;;;;55.25;30.20;;;;;;;;;;5113957;28;20390;-62
2021/09/17 01:10:47;;;;;;;60.10;31.95;;;;;;;;;;5113746;28;20141;-62
2021/09/17 01:13:32;;;;;;;77.35;35.35;;;;;;;;;;5113423;28;20047;-62
2021/09/17 01:16:18;;;;;;;53.60;32.13;;;;;;;;;;5113282;28;20048;-63
2021/09/17 01:19:03;;;;;;;77.13;32.75;;;;;;;;;;5112897;28;20576;-63
2021/09/17 01:21:51;;;;;;;76.47;28.38;;;;;;;;;;5113448;28;20055;-62
2021/09/17 01:24:36;;;;;;;148.40;36.00;;;;;;;;;;5111627;28;20122;-62
2021/09/17 01:27:21;;;;;;;42.00;25.77;;;;;;;;;;5113188;28;20063;-63
2021/09/17 01:30:06;;;;;;;70.63;27.15;;;;;;;;;;5087520;28;20495;-63
2021/09/17 01:32:52;;;;;;;110.03;32.63;;;;;;;;;;5113121;28;20051;-63
2021/09/17 01:35:37;;;;;;;72.32;35.85;;;;;;;;;;5113133;28;20059;-63
2021/09/17 01:38:22;;;;;;;67.47;35.00;;;;;;;;;;5097469;28;20061;-62
2021/09/17 01:41:07;;;;;;;80.53;41.95;;;;;;;;;;5108988;28;20048;-62
2021/09/17 01:43:52;;;;;;;84.07;41.45;;;;;;;;;;5112953;28;20052;-62
2021/09/17 01:46:38;;;;;;;83.88;42.33;;;;;;;;;;5112701;28;20086;-62
2021/09/17 01:49:23;;;;;;;84.15;42.63;;;;;;;;;;5112616;28;20052;-62
2021/09/17 01:52:08;;;;;;;103.82;48.22;;;;;;;;;;5112441;28;20052;-62
2021/09/17 01:54:53;;;;;;;107.53;48.25;;;;;;;;;;5094951;28;20518;-62
2021/09/17 01:57:39;;;;;;;97.35;47.35;;;;;;;;;;5098731;28;20052;-62
2021/09/17 02:00:24;;;;;;;89.28;44.70;;;;;;;;;;5112112;28;20569;-63
2021/09/17 02:03:10;;;;;;;92.28;46.95;;;;;;;;;;5112860;28;20476;-62
2021/09/17 02:05:55;;;;;;;90.38;44.28;;;;;;;;;;5112622;28;20044;-62
2021/09/17 02:08:40;;;;;;;89.72;42.67;;;;;;;;;;5112581;28;20122;-62
2021/09/17 02:11:25;;;;;;;95.18;35.97;;;;;;;;;;5111830;28;20051;-62
2021/09/17 02:14:11;;;;;;;128.23;28.35;;;;;;;;;;5112651;28;20048;-62
2021/09/17 02:16:56;;;;;;;165.00;25.58;;;;;;;;;;5112725;28;20044;-62
2021/09/17 02:19:41;;;;;;;317.23;29.83;;;;;;;;;;5112285;28;20116;-62
2021/09/17 02:22:27;;;;;;;127.45;20.02;;;;;;;;;;5112363;28;20047;-62
2021/09/17 02:25:12;;;;;;;105.75;18.98;;;;;;;;;;5100673;28;20044;-62
2021/09/17 02:27:57;;;;;;;42.10;18.40;;;;;;;;;;5091948;28;20048;-63
2021/09/17 02:30:43;;;;;;;41.22;20.13;;;;;;;;;;5098992;28;20126;-62
2021/09/17 02:33:28;;;;;;;147.30;24.70;;;;;;;;;;5093524;28;20048;-62
2021/09/17 02:36:13;;;;;;;120.68;24.35;;;;;;;;;;5093088;28;20048;-63
2021/09/17 02:38:59;;;;;;;92.75;24.40;;;;;;;;;;5096257;28;20048;-62
2021/09/17 02:41:44;;;;;;;50.72;23.60;;;;;;;;;;5109500;28;20048;-62
2021/09/17 02:44:29;;;;;;;55.63;22.92;;;;;;;;;;5114736;28;20114;-63
2021/09/17 02:47:15;;;;;;;203.70;41.53;;;;;;;;;;5108654;28;20060;-63
2021/09/17 02:50:00;;;;;;;165.23;32.40;;;;;;;;;;5095958;28;20055;-63
2021/09/17 02:52:45;;;;;;;89.80;24.27;;;;;;;;;;5115063;28;20433;-63
2021/09/17 02:55:31;;;;;;;123.82;27.90;;;;;;;;;;5102982;28;20048;-62
2021/09/17 02:58:16;;;;;;;52.15;29.73;;;;;;;;;;5095778;28;20444;-62
2021/09/17 03:01:01;;;;;;;64.05;34.70;;;;;;;;;;5098008;28;20052;-62
2021/09/17 03:03:47;;;;;;;77.72;42.00;;;;;;;;;;5115948;28;20047;-63
2021/09/17 03:06:32;;;;;;;126.25;54.40;;;;;;;;;;5115971;28;20055;-63
2021/09/17 03:09:17;;;;;;;111.97;54.58;;;;;;;;;;5116100;28;20118;-62
2021/09/17 03:12:03;;;;;;;94.20;43.60;;;;;;;;;;5115702;28;20720;-62
2021/09/17 03:14:48;;;;;;;90.90;40.95;;;;;;;;;;5114979;28;20059;-63
2021/09/17 03:17:33;;;;;;;47.40;25.77;;;;;;;;;;5116024;28;20044;-64
2021/09/17 03:20:19;;;;;;;40.15;21.95;;;;;;;;;;5115830;28;20083;-62
2021/09/17 03:23:04;;;;;;;30.52;20.88;;;;;;;;;;5115360;28;20051;-62
2021/09/17 03:25:49;;;;;;;178.10;41.72;;;;;;;;;;5111304;28;20114;-62
2021/09/17 03:28:35;;;;;;;192.00;44.40;;;;;;;;;;5100403;28;20477;-63
2021/09/17 03:31:20;;;;;;;412.77;57.95;;;;;;;;;;5109065;28;20505;-62
2021/09/17 03:34:05;;;;;;;334.40;58.88;;;;;;;;;;5115340;28;20052;-62
2021/09/17 03:36:51;;;;;;;409.88;65.93;;;;;;;;;;5115571;28;20122;-62
2021/09/17 03:39:36;;;;;;;406.35;60.47;;;;;;;;;;5115425;28;20047;-62
2021/09/17 03:42:21;;;;;;;311.40;52.42;;;;;;;;;;5114041;28;20047;-63
2021/09/17 03:45:07;;;;;;;264.85;51.25;;;;;;;;;;5115178;28;20043;-62
2021/09/17 03:47:52;;;;;;;201.43;47.47;;;;;;;;;;5102401;28;20510;-63
2021/09/17 03:50:37;;;;;;;143.50;44.95;;;;;;;;;;5096334;28;20052;-62
2021/09/17 03:53:23;;;;;;;155.23;44.97;;;;;;;;;;5117360;22;20055;-63
2021/09/17 03:56:08;;;;;;;182.63;40.55;;;;;;;;;;5094686;28;20044;-63
2021/09/17 03:58:53;;;;;;;142.43;40.70;;;;;;;;;;5094874;28;20052;-63
2021/09/17 04:01:39;;;;;;;86.72;40.90;;;;;;;;;;5094044;28;20044;-64
2021/09/17 04:04:25;;;;;;;100.32;40.35;;;;;;;;;;5074086;28;20538;-64
2021/09/17 04:07:10;;;;;;;101.10;38.92;;;;;;;;;;5074456;28;20403;-63
2021/09/17 04:09:55;;;;;;;122.38;39.75;;;;;;;;;;5074448;28;20057;-63
2021/09/17 04:12:41;;;;;;;88.95;39.58;;;;;;;;;;5061161;28;20127;-63
2021/09/17 04:15:26;;;;;;;73.45;39.83;;;;;;;;;;5071992;28;20056;-62
2021/09/17 04:18:11;;;;;;;57.70;35.45;;;;;;;;;;5073693;28;20057;-63
2021/09/17 04:20:57;;;;;;;59.45;38.38;;;;;;;;;;5074087;28;20123;-63
2021/09/17 04:23:42;;;;;;;54.10;35.97;;;;;;;;;;5056068;28;20061;-63
2021/09/17 04:26:27;;;;;;;66.13;40.22;;;;;;;;;;5074047;28;20052;-63
2021/09/17 04:29:13;;;;;;;62.17;39.38;;;;;;;;;;5073919;28;20048;-62
2021/09/17 04:31:58;;;;;;;102.32;50.75;;;;;;;;;;5073173;28;20056;-64
2021/09/17 04:34:43;;;;;;;118.10;58.13;;;;;;;;;;5059581;28;20048;-63
2021/09/17 04:37:28;;;;;;;107.93;56.53;;;;;;;;;;5063005;28;20049;-63
2021/09/17 04:40:15;;;;;;;118.35;54.10;;;;;;;;;;5053611;28;20056;-63
2021/09/17 04:43:01;;;;;;;100.25;51.78;;;;;;;;;;5059345;28;20048;-63
2021/09/17 04:45:48;;;;;;;73.57;41.47;;;;;;;;;;5073119;28;20084;-63
2021/09/17 04:48:33;;;;;;;68.65;38.65;;;;;;;;;;5075623;28;20048;-63
2021/09/17 04:51:18;;;;;;;72.63;37.20;;;;;;;;;;5059100;28;20060;-63
2021/09/17 04:54:04;;;;;;;94.78;39.90;;;;;;;;;;5072921;28;20554;-63
2021/09/17 04:56:49;;;;;;;97.68;38.95;;;;;;;;;;5072530;28;20506;-63
2021/09/17 04:59:34;;;;;;;175.82;44.25;;;;;;;;;;5072887;28;20052;-63
2021/09/17 05:02:20;;;;;;;140.82;39.80;;;;;;;;;;5069935;28;20044;-62
2021/09/17 05:05:05;;;;;;;127.20;40.58;;;;;;;;;;5055360;28;20613;-63
2021/09/17 05:07:50;;;;;;;249.50;53.00;;;;;;;;;;5074433;28;20123;-63
2021/09/17 05:10:35;;;;;;;293.50;59.15;;;;;;;;;;5058142;28;20064;-63
2021/09/17 05:13:20;;;;;;;358.90;66.35;;;;;;;;;;5058678;28;20053;-63
2021/09/17 05:16:06;;;;;;;148.88;43.88;;;;;;;;;;5053074;28;20136;-63
2021/09/17 05:18:51;;;;;;;120.72;46.10;;;;;;;;;;5060583;28;20053;-63
2021/09/17 05:21:36;;;;;;;89.72;43.53;;;;;;;;;;5072397;28;20554;-63
2021/09/17 05:24:22;;;;;;;61.85;36.95;;;;;;;;;;5070447;28;20048;-63
2021/09/17 05:27:12;;;;;;;52.85;34.92;;;;;;;;;;5072811;28;20056;-63
2021/09/17 05:29:59;;;;;;;68.05;40.45;;;;;;;;;;5092492;28;20056;-63
2021/09/17 05:32:44;;;;;;;70.20;40.45;;;;;;;;;;5088580;28;20561;-63
2021/09/17 05:35:29;;;;;;;75.75;38.17;;;;;;;;;;5063374;28;20056;-64
2021/09/17 05:38:15;;;;;;;68.60;38.45;;;;;;;;;;5072459;28;20106;-64
2021/09/17 05:41:00;;;;;;;63.17;37.97;;;;;;;;;;5080860;28;20469;-63
2021/09/17 05:43:45;;;;;;;62.00;38.17;;;;;;;;;;5072237;28;20053;-65
2021/09/17 05:46:30;;;;;;;61.97;37.55;;;;;;;;;;5072195;28;20061;-64
2021/09/17 05:49:16;;;;;;;53.58;35.05;;;;;;;;;;5072679;28;20057;-64
2021/09/17 05:52:01;;;;;;;86.40;41.58;;;;;;;;;;5071534;28;20048;-64
2021/09/17 05:54:46;;;;;;;60.03;37.30;;;;;;;;;;5072068;28;20060;-64
2021/09/17 05:57:32;;;;;;;60.97;38.83;;;;;;;;;;5052380;28;20049;-64
2021/09/17 06:00:17;;;;;;;56.10;37.83;;;;;;;;;;5052343;28;20053;-64
2021/09/17 06:03:03;;;;;;;69.30;40.50;;;;;;;;;;5061514;28;20052;-64
2021/09/17 06:05:48;;;;;;;53.03;36.30;;;;;;;;;;5071407;28;20048;-64
2021/09/17 06:08:33;;;;;;;58.38;37.10;;;;;;;;;;5084845;28;20414;-64
2021/09/17 06:11:19;;;;;;;71.70;40.30;;;;;;;;;;5091627;28;20123;-64
2021/09/17 06:14:04;;;;;;;59.95;37.42;;;;;;;;;;5091893;28;20086;-64
2021/09/17 06:16:49;;;;;;;46.05;34.80;;;;;;;;;;5090008;28;20048;-64
2021/09/17 06:19:35;;;;;;;43.28;34.42;;;;;;;;;;5062624;28;20131;-64
2021/09/17 06:22:20;;;;;;;50.22;35.28;;;;;;;;;;5071535;28;20040;-64
2021/09/17 06:25:06;;;;;;;36.92;29.90;;;;;;;;;;5071514;28;20053;-65
2021/09/17 06:27:51;;;;;;;40.35;31.58;;;;;;;;;;5072086;28;20048;-65
2021/09/17 06:30:36;;;;;;;52.95;35.78;;;;;;;;;;5071759;28;20061;-64
2021/09/17 06:33:22;;;;;;;50.72;35.30;;;;;;;;;;5064471;28;20057;-64
2021/09/17 06:36:07;;;;;;;49.72;36.05;;;;;;;;;;5068538;28;20053;-64
2021/09/17 06:38:53;;;;;;;41.30;34.03;;;;;;;;;;5069838;28;20045;-64
2021/09/17 06:41:38;;;;;;;43.78;33.80;;;;;;;;;;5091569;28;20048;-64
2021/09/17 06:44:23;;;;;;;39.78;32.55;;;;;;;;;;5091750;28;20114;-64
2021/09/17 06:47:08;;;;;;;42.80;34.05;;;;;;;;;;5091875;28;20060;-64
2021/09/17 06:49:54;;;;;;;44.30;33.92;;;;;;;;;;5085573;28;20052;-64
2021/09/17 06:52:40;;;;;;;44.85;35.03;;;;;;;;;;5071539;28;20052;-64
2021/09/17 06:55:27;;;;;;;39.55;33.80;;;;;;;;;;5073043;28;20116;-64
2021/09/17 06:58:12;;;;;;;48.80;36.03;;;;;;;;;;5092101;28;20048;-64
2021/09/17 07:00:57;;;;;;;37.28;31.90;;;;;;;;;;5066506;28;20115;-64
2021/09/17 07:03:43;;;;;;;42.15;34.47;;;;;;;;;;5056435;28;20044;-64
2021/09/17 07:06:32;;;;;;;42.28;33.83;;;;;;;;;;5071734;28;20044;-65
2021/09/17 07:09:17;;;;;;;37.45;31.40;;;;;;;;;;5071722;28;20052;-64
2021/09/17 07:12:02;;;;;;;49.90;36.67;;;;;;;;;;5069053;28;20123;-64
2021/09/17 07:14:48;;;;;;;44.58;35.17;;;;;;;;;;5051070;28;20049;-64
2021/09/17 07:17:33;;;;;;;44.03;35.65;;;;;;;;;;5064145;28;20044;-64
2021/09/17 07:20:19;;;;;;;41.83;31.52;;;;;;;;;;5071073;28;20115;-64
2021/09/17 07:23:04;;;;;;;43.78;31.50;;;;;;;;;;5077372;28;20044;-64
2021/09/17 07:25:49;;;;;;;33.67;29.25;;;;;;;;;;5076187;28;20052;-64
2021/09/17 07:28:35;;;;;;;44.38;33.58;;;;;;;;;;5075777;28;20056;-65
2021/09/17 07:31:20;;;;;;;51.60;33.28;;;;;;;;;;5077756;28;20761;-64
2021/09/17 07:34:06;;;;;;;50.78;32.63;;;;;;;;;;5069242;28;20049;-64
2021/09/17 07:36:51;;;;;;;67.93;35.40;;;;;;;;;;5077652;28;20040;-64
2021/09/17 07:39:36;;;;;;;47.42;33.05;;;;;;;;;;5077992;28;20049;-64
2021/09/17 07:42:21;;;;;;;49.95;33.15;;;;;;;;;;5076304;28;20048;-65
2021/09/17 07:45:07;;;;;;;34.50;29.20;;;;;;;;;;5064540;28;20104;-64
2021/09/17 07:47:54;;;;;;;39.97;28.13;;;;;;;;;;5069224;28;20052;-64
2021/09/17 07:50:39;;;;;;;56.80;34.90;;;;;;;;;;5058455;28;20053;-64
2021/09/17 07:53:24;;;;;;;34.03;28.23;;;;;;;;;;5075435;28;20048;-65
2021/09/17 07:56:09;;;;;;;34.22;29.73;;;;;;;;;;5074320;28;20060;-65
2021/09/17 07:58:55;;;;;;;36.33;29.73;;;;;;;;;;5074089;28;20115;-65
2021/09/17 08:01:40;;;;;;;29.90;26.90;;;;;;;;;;5074009;28;20048;-65
2021/09/17 08:04:26;;;;;;;37.30;30.60;;;;;;;;;;5073737;28;20422;-65
2021/09/17 08:07:11;;;;;;;41.13;32.63;;;;;;;;;;5072923;28;20124;-65
2021/09/17 08:09:56;;;;;;;36.15;30.92;;;;;;;;;;5054369;28;20061;-64
2021/09/17 08:12:42;;;;;;;36.67;29.95;;;;;;;;;;5072393;28;20053;-65
2021/09/17 08:15:27;;;;;;;37.72;28.83;;;;;;;;;;5074112;28;20052;-64
2021/09/17 08:18:12;;;;;;;35.50;29.67;;;;;;;;;;5087693;28;20501;-64
2021/09/17 08:20:58;;;;;;;39.92;31.25;;;;;;;;;;5072863;28;20041;-64
2021/09/17 08:23:43;;;;;;;34.88;30.40;;;;;;;;;;5058005;28;20499;-64
2021/09/17 08:26:29;;;;;;;46.67;33.33;;;;;;;;;;5074353;28;20048;-64
2021/09/17 08:29:14;;;;;;;36.03;29.73;;;;;;;;;;5073791;28;20052;-64
2021/09/17 08:32:01;;;;;;;45.10;32.75;;;;;;;;;;5068860;28;20499;-64
2021/09/17 08:34:47;;;;;;;35.85;29.02;;;;;;;;;;5062758;28;20049;-64
2021/09/17 08:37:32;;;;;;;40.25;30.58;;;;;;;;;;5076016;28;20043;-64
2021/09/17 08:40:18;;;;;;;36.90;30.92;;;;;;;;;;5063210;28;20056;-66
2021/09/17 08:43:03;;;;;;;40.17;31.23;;;;;;;;;;5073046;28;20052;-66
2021/09/17 08:45:48;;;;;;;39.17;29.63;;;;;;;;;;5072487;28;20075;-65
2021/09/17 08:48:33;;;;;;;35.22;28.58;;;;;;;;;;5073028;28;20052;-65
2021/09/17 08:51:20;;;;;;;37.97;30.02;;;;;;;;;;5058587;28;20052;-64
2021/09/17 08:54:05;;;;;;;35.03;28.88;;;;;;;;;;5053011;28;20041;-64
2021/09/17 08:56:51;;;;;;;36.78;29.77;;;;;;;;;;5071521;28;20048;-64
2021/09/17 08:59:36;;;;;;;34.53;27.38;;;;;;;;;;5073232;28;20052;-64
2021/09/17 09:02:25;;;;;;;33.67;29.60;;;;;;;;;;5071056;28;20052;-64
2021/09/17 09:05:10;;;;;;;35.53;29.10;;;;;;;;;;5072923;28;20045;-64
2021/09/17 09:07:55;;;;;;;33.50;29.33;;;;;;;;;;5073246;28;20056;-64
2021/09/17 09:10:40;;;;;;;33.45;29.02;;;;;;;;;;5069485;28;20053;-64
2021/09/17 09:13:26;;;;;;;32.00;26.08;;;;;;;;;;5062458;28;20052;-64
2021/09/17 09:16:19;;;;;;;31.15;26.77;;;;;;;;;;5073035;28;20056;-64
2021/09/17 09:19:15;;;;;;;29.90;26.08;;;;;;;;;;5072922;28;20048;-64
2021/09/17 09:22:03;;;;;;;35.00;27.85;;;;;;;;;;5066112;28;20060;-65
2021/09/17 09:24:49;;;;;;;32.13;25.92;;;;;;;;;;5072319;28;20672;-65
2021/09/17 09:27:34;;;;;;;28.42;25.52;;;;;;;;;;5072714;28;20418;-64
2021/09/17 09:30:29;;;;;;;28.05;25.05;;;;;;;;;;5072590;28;20123;-65
2021/09/17 09:33:28;;;;;;;28.08;25.00;;;;;;;;;;5071972;28;20053;-65
2021/09/17 09:36:15;;;;;;;25.88;23.17;;;;;;;;;;5072821;28;20056;-65
2021/09/17 09:39:00;;;;;;;26.77;23.92;;;;;;;;;;5072655;28;20128;-64
2021/09/17 09:41:46;;;;;;;26.35;21.63;;;;;;;;;;5071565;28;20125;-65
2021/09/17 09:44:32;;;;;;;23.77;21.30;;;;;;;;;;5057152;28;20060;-64
2021/09/17 09:47:18;;;;;;;27.55;24.65;;;;;;;;;;5072446;28;20057;-65
2021/09/17 09:50:05;;;;;;;24.48;21.95;;;;;;;;;;5057525;28;20053;-64
2021/09/17 09:52:53;;;;;;;25.15;22.45;;;;;;;;;;5063833;28;20127;-66
2021/09/17 09:55:39;;;;;;;23.92;21.52;;;;;;;;;;5052200;28;20048;-66
2021/09/17 09:58:24;;;;;;;24.92;21.60;;;;;;;;;;5050338;28;20048;-65
2021/09/17 10:01:09;;;;;;;22.20;18.73;;;;;;;;;;5071923;28;20049;-66
2021/09/17 10:03:56;;;;;;;23.60;18.35;;;;;;;;;;5071219;28;20116;-65
2021/09/17 10:06:41;;;;;;;22.38;18.23;;;;;;;;;;5057480;28;20053;-66
2021/09/17 10:09:26;;;;;;;23.05;18.60;;;;;;;;;;5072011;28;20053;-65
2021/09/17 10:12:12;;;;;;;15.07;13.68;;;;;;;;;;5056985;28;20127;-66
2021/09/17 10:14:57;;;;;;;16.85;14.02;;;;;;;;;;5071894;28;20056;-66
2021/09/17 10:17:43;;;;;;;17.27;15.63;;;;;;;;;;5056988;28;20044;-66
2021/09/17 10:20:38;;;;;;;21.73;18.27;;;;;;;;;;5057140;28;20049;-66
2021/09/17 10:23:26;;;;;;;20.98;18.67;;;;;;;;;;5052147;28;20057;-65
2021/09/17 10:26:12;;;;;;;20.10;17.13;;;;;;;;;;5071874;28;20387;-66
2021/09/17 10:29:07;;;;;;;19.05;17.02;;;;;;;;;;5072036;28;20052;-66
2021/09/17 10:31:54;;;;;;;16.85;15.20;;;;;;;;;;5071845;28;20049;-66
2021/09/17 10:34:41;;;;;;;18.40;16.55;;;;;;;;;;5053701;28;20515;-66
2021/09/17 10:37:46;;;;;;;20.33;14.30;;;;;;;;;;5051854;28;20103;-66
2021/09/17 10:40:51;;;;;;;21.15;17.25;;;;;;;;;;5051700;28;20053;-65
2021/09/17 10:43:40;;;;;;;17.75;15.40;;;;;;;;;;5035503;28;20491;-65
2021/09/17 10:46:28;;;;;;;30.65;14.82;;;;;;;;;;5059923;28;20049;-65
2021/09/17 10:49:13;;;;;;;15.30;13.60;;;;;;;;;;5071419;28;20515;-65
2021/09/17 10:51:59;;;;;;;18.20;16.50;;;;;;;;;;5071610;28;20151;-65
2021/09/17 10:54:45;;;;;;;16.60;14.90;;;;;;;;;;5070738;28;20123;-64
2021/09/17 10:57:30;;;;;;;16.33;14.55;;;;;;;;;;5073011;28;20575;-66
2021/09/17 11:00:36;;;;;;;16.15;14.50;;;;;;;;;;5073837;28;20048;-66
2021/09/17 11:03:53;;;;;;;14.82;13.00;;;;;;;;;;5075139;28;20120;-65
2021/09/17 11:06:38;;;;;;;15.43;13.80;;;;;;;;;;5018765;28;20120;-66
2021/09/17 11:09:39;;;;;;;14.50;12.68;;;;;;;;;;5068400;28;20131;-66
2021/09/17 11:12:29;;;;;;;13.95;12.38;;;;;;;;;;5075180;28;20530;-66
2021/09/17 11:15:14;;;;;;;14.68;13.18;;;;;;;;;;5057122;28;20127;-66
2021/09/17 11:18:03;;;;;;;13.38;12.07;;;;;;;;;;5074698;28;20079;-66
2021/09/17 11:20:48;;;;;;;13.60;12.20;;;;;;;;;;5075228;28;20123;-66
2021/09/17 11:23:36;;;;;;;12.90;11.60;;;;;;;;;;5060013;28;20049;-66
2021/09/17 11:26:22;;;;;;;11.90;10.70;;;;;;;;;;5074994;28;20048;-66
2021/09/17 11:29:08;;;;;;;10.48;9.38;;;;;;;;;;5073578;28;20053;-65
2021/09/17 11:31:54;;;;;;;10.02;9.07;;;;;;;;;;5074869;28;20052;-66
2021/09/17 11:34:40;;;;;;;9.95;8.82;;;;;;;;;;5074710;28;20048;-65
2021/09/17 11:37:25;;;;;;;9.55;8.55;;;;;;;;;;5074746;28;20506;-65
2021/09/17 11:40:10;;;;;;;11.65;8.68;;;;;;;;;;5057871;28;20419;-65
2021/09/17 11:42:56;;;;;;;8.45;7.65;;;;;;;;;;5054710;28;20052;-65
2021/09/17 11:45:45;;;;;;;10.40;9.30;;;;;;;;;;5054648;28;20124;-65
2021/09/17 11:48:30;;;;;;;10.25;9.25;;;;;;;;;;5055926;28;20052;-65
2021/09/17 11:51:16;;;;;;;11.13;10.02;;;;;;;;;;5074456;28;20052;-65
2021/09/17 11:54:01;;;;;;;10.55;9.48;;;;;;;;;;5072409;28;20056;-65
2021/09/17 11:57:07;;;;;;;11.25;9.70;;;;;;;;;;5073780;28;20048;-65
2021/09/17 11:59:52;;;;;;;12.82;9.45;;;;;;;;;;5074079;28;20457;-65
2021/09/17 12:02:37;;;;;;;11.77;8.73;;;;;;;;;;5074517;28;20052;-65
2021/09/17 12:05:26;;;;;;;9.90;8.95;;;;;;;;;;5074207;28;20094;-65
2021/09/17 12:08:12;;;;;;;9.88;7.97;;;;;;;;;;5058684;28;20119;-65
2021/09/17 12:11:01;;;;;;;8.95;8.07;;;;;;;;;;5068145;28;20045;-65
2021/09/17 12:13:46;;;;;;;9.65;8.52;;;;;;;;;;5053907;28;20049;-66
2021/09/17 12:16:31;;;;;;;9.05;8.25;;;;;;;;;;5039271;28;20119;-65
2021/09/17 12:19:17;;;;;;;8.82;7.85;;;;;;;;;;5054314;28;20053;-66
2021/09/17 12:22:02;;;;;;;9.57;7.95;;;;;;;;;;5058885;28;20538;-66
2021/09/17 12:24:47;;;;;;;5.68;5.07;;;;;;;;;;5073561;28;20444;-66
2021/09/17 12:27:33;;;;;;;3.85;3.05;;;;;;;;;;5076085;28;20053;-65
2021/09/17 12:30:19;;;;;;;3.58;3.28;;;;;;;;;;5075174;28;20056;-65
2021/09/17 12:33:11;;;;;;;5.72;4.90;;;;;;;;;;5073413;28;20048;-65
2021/09/17 12:35:56;;;;;;;;;;;;;;;;;;5074425;28;20052;-65
2021/09/17 12:38:42;;;;;;;6.07;4.13;;;;;;;;;;5073649;28;20374;-65
2021/09/17 12:41:28;;;;;;;7.13;6.43;;;;;;;;;;5072608;28;20049;-65
2021/09/17 12:44:14;;;;;;;7.15;5.57;;;;;;;;;;5073420;28;20048;-65
2021/09/17 12:47:00;;;;;;;7.00;5.43;;;;;;;;;;5073554;28;20048;-65
2021/09/17 12:49:45;;;;;;;6.88;6.13;;;;;;;;;;5073391;28;20060;-65
2021/09/17 12:52:33;;;;;;;6.28;5.68;;;;;;;;;;5073113;28;20052;-65
2021/09/17 12:55:22;;;;;;;7.05;4.82;;;;;;;;;;5056878;28;20095;-65
2021/09/17 12:58:08;;;;;;;5.20;4.70;;;;;;;;;;5053234;28;20115;-65
2021/09/17 13:00:53;;;;;;;5.63;4.35;;;;;;;;;;5053461;28;20053;-65
2021/09/17 13:03:38;;;;;;;9.30;6.68;;;;;;;;;;5053039;28;20052;-65
2021/09/17 13:06:24;;;;;;;5.93;5.43;;;;;;;;;;5053137;28;20053;-65
2021/09/17 13:09:09;;;;;;;6.00;5.07;;;;;;;;;;5057139;28;20052;-66
2021/09/17 13:11:56;;;;;;;5.60;4.68;;;;;;;;;;5073026;28;20052;-65
2021/09/17 13:14:41;;;;;;;4.85;4.45;;;;;;;;;;5072586;28;20111;-66
2021/09/17 13:17:26;;;;;;;6.88;4.97;;;;;;;;;;5073183;28;20056;-66
2021/09/17 13:20:12;;;;;;;6.32;4.82;;;;;;;;;;5072702;28;20052;-66
2021/09/17 13:22:57;;;;;;;5.03;4.60;;;;;;;;;;5072855;28;20056;-66
2021/09/17 13:25:42;;;;;;;5.38;4.32;;;;;;;;;;5063971;28;20499;-66
2021/09/17 13:28:28;;;;;;;5.18;4.65;;;;;;;;;;5052923;28;20084;-66
2021/09/17 13:31:13;;;;;;;5.13;4.63;;;;;;;;;;5052783;28;20045;-67
2021/09/17 13:33:58;;;;;;;5.22;4.40;;;;;;;;;;5052506;28;20044;-66
2021/09/17 13:36:44;;;;;;;4.28;3.58;;;;;;;;;;5068673;28;20052;-67
2021/09/17 13:39:29;;;;;;;4.32;3.92;;;;;;;;;;5072472;28;20048;-66
2021/09/17 13:42:14;;;;;;;5.32;4.72;;;;;;;;;;5072671;28;20049;-65
2021/09/17 13:45:00;;;;;;;4.88;4.15;;;;;;;;;;5070595;28;20123;-65
2021/09/17 13:47:45;;;;;;;6.45;5.68;;;;;;;;;;5060903;28;20115;-65
2021/09/17 13:50:30;;;;;;;5.63;4.57;;;;;;;;;;5072598;28;20473;-65
2021/09/17 13:53:16;;;;;;;6.60;4.57;;;;;;;;;;5072289;28;20045;-65
2021/09/17 13:56:01;;;;;;;5.70;3.63;;;;;;;;;;5063692;28;20048;-65
2021/09/17 13:58:46;;;;;;;4.10;3.30;;;;;;;;;;5072318;28;20048;-65
2021/09/17 14:01:32;;;;;;;4.30;3.70;;;;;;;;;;5057202;28;20123;-65
2021/09/17 14:04:17;;;;;;;6.20;4.78;;;;;;;;;;5071768;28;20052;-65
2021/09/17 14:07:03;;;;;;;5.35;4.30;;;;;;;;;;5058744;28;20072;-65
2021/09/17 14:09:48;;;;;;;5.75;4.80;;;;;;;;;;5052161;28;20061;-65
2021/09/17 14:12:33;;;;;;;4.60;4.20;;;;;;;;;;5062421;28;20063;-65
2021/09/17 14:15:18;;;;;;;5.80;5.07;;;;;;;;;;5056473;28;20052;-65
2021/09/17 14:18:03;;;;;;;6.88;6.25;;;;;;;;;;5071161;28;20048;-65
2021/09/17 14:20:49;;;;;;;7.20;6.20;;;;;;;;;;5053994;28;20052;-66
2021/09/17 14:23:34;;;;;;;7.95;5.95;;;;;;;;;;5071590;28;20052;-65
2021/09/17 14:26:19;;;;;;;5.75;5.00;;;;;;;;;;5069917;28;20095;-65
2021/09/17 14:29:05;;;;;;;6.82;5.85;;;;;;;;;;5071615;28;20119;-65
2021/09/17 14:31:50;;;;;;;8.60;6.07;;;;;;;;;;5070946;28;20056;-65
2021/09/17 14:34:35;;;;;;;6.53;5.82;;;;;;;;;;5071791;28;20052;-65
2021/09/17 14:37:21;;;;;;;6.55;5.82;;;;;;;;;;5071776;28;20058;-65
2021/09/17 14:40:07;;;;;;;6.45;5.85;;;;;;;;;;5071621;28;20392;-66
2021/09/17 14:42:52;;;;;;;8.63;5.35;;;;;;;;;;5070873;28;20048;-64
2021/09/17 14:45:37;;;;;;;7.78;6.65;;;;;;;;;;5071392;28;20049;-65
2021/09/17 14:48:22;;;;;;;8.50;7.43;;;;;;;;;;5071774;28;20056;-65
2021/09/17 14:51:08;;;;;;;8.23;7.40;;;;;;;;;;5071883;28;20068;-65
2021/09/17 14:53:53;;;;;;;10.02;8.20;;;;;;;;;;5071247;28;20057;-65
2021/09/17 14:56:38;;;;;;;12.30;8.05;;;;;;;;;;5071487;28;20533;-65
2021/09/17 14:59:24;;;;;;;7.85;7.05;;;;;;;;;;5071720;28;20048;-65
2021/09/17 15:02:09;;;;;;;7.43;6.70;;;;;;;;;;5071113;28;20057;-65
2021/09/17 15:04:54;;;;;;;7.47;6.75;;;;;;;;;;5036336;28;20503;-65
2021/09/17 15:07:39;;;;;;;8.27;7.53;;;;;;;;;;5068434;28;20049;-65
2021/09/17 15:10:24;;;;;;;8.45;6.72;;;;;;;;;;5071438;28;20056;-65
2021/09/17 15:13:10;;;;;;;8.15;6.95;;;;;;;;;;5071475;28;20418;-65
2021/09/17 15:15:55;;;;;;;10.35;6.90;;;;;;;;;;5071696;28;20053;-65
2021/09/17 15:18:40;;;;;;;7.70;7.00;;;;;;;;;;5051449;28;20053;-65
2021/09/17 15:21:26;;;;;;;8.00;6.47;;;;;;;;;;5051407;28;20558;-65
2021/09/17 15:24:11;;;;;;;7.32;6.63;;;;;;;;;;5066922;28;20092;-65
2021/09/17 15:26:56;;;;;;;7.75;6.95;;;;;;;;;;5070697;28;20523;-66
2021/09/17 15:29:42;;;;;;;7.25;6.35;;;;;;;;;;5071468;28;20502;-66
2021/09/17 15:32:27;;;;;;;7.18;6.45;;;;;;;;;;5071478;28;20052;-66
2021/09/17 15:35:12;;;;;;;8.15;6.93;;;;;;;;;;5071185;28;20044;-66
2021/09/17 15:37:59;;;;;;;7.68;6.57;;;;;;;;;;5071263;28;20053;-66
2021/09/17 15:40:44;;;;;;;7.53;6.57;;;;;;;;;;5051211;28;20507;-65
2021/09/17 15:43:31;;;;;;;7.68;6.93;;;;;;;;;;5052408;28;20052;-65
2021/09/17 15:46:16;;;;;;;9.15;6.97;;;;;;;;;;5064609;28;20449;-65
2021/09/17 15:49:01;;;;;;;8.15;7.32;;;;;;;;;;5054590;28;20507;-65
2021/09/17 15:51:47;;;;;;;7.57;6.88;;;;;;;;;;5054864;28;20088;-65
2021/09/17 15:54:32;;;;;;;7.50;6.47;;;;;;;;;;5054750;28;20495;-65
2021/09/17 15:57:17;;;;;;;7.30;6.68;;;;;;;;;;5069050;28;20422;-65
2021/09/17 16:00:03;;;;;;;9.20;7.35;;;;;;;;;;5072783;28;20129;-65
2021/09/17 16:02:55;;;;;;;8.65;7.70;;;;;;;;;;5074459;28;20037;-65
2021/09/17 16:05:40;;;;;;;7.85;5.82;;;;;;;;;;5073985;28;20396;-65
2021/09/17 16:08:25;;;;;;;13.27;6.65;;;;;;;;;;5054509;28;20057;-65
2021/09/17 16:11:13;;;;;;;23.90;6.82;;;;;;;;;;5069384;28;20048;-65
2021/09/17 16:13:58;;;;;;;18.98;5.68;;;;;;;;;;5073849;28;20084;-65